sensor_id;sensor_type;location;lat;lon;timestamp;temperature;humidity
13344;DHT22;6741;48.964;9.406;2023-09-07T00:01:33;15.00;99.90
13344;DHT22;6741;48.964;9.406;2023-09-07T00:04:00;15.00;99.90
13344;DHT22;6741;48.964;9.406;2023-09-07T00:06:28;15.00;99.90
13344;DHT22;6741;48.964;9.406;2023-09-07T00:08:55;15.00;99.90
13344;DHT22;6741;48.964;9.406;2023-09-07T00:11:23;15.00;99.90
13344;DHT22;6741;48.964;9.406;2023-09-07T00:13:50;14.90;99.90
13344;DHT22;6741;48.964;9.406;2023-09-07T00:16:17;14.90;99.90
13344;DHT22;6741;48.964;9.406;2023-09-07T00:18:44;14.90;99.90
13344;DHT22;6741;48.964;9.406;2023-09-07T00:21:11;14.80;99.90
13344;DHT22;6741;48.964;9.406;2023-09-07T00:23:39;14.80;99.90
13344;DHT22;6741;48.964;9.406;2023-09-07T00:26:07;14.70;99.90
13344;DHT22;6741;48.964;9.406;2023-09-07T00:28:36;14.70;99.90
13344;DHT22;6741;48.964;9.406;2023-09-07T00:31:02;14.60;99.90
13344;DHT22;6741;48.964;9.406;2023-09-07T00:33:29;14.70;99.90
13344;DHT22;6741;48.964;9.406;2023-09-07T00:35:56;14.60;99.90
13344;DHT22;6741;48.964;9.406;2023-09-07T00:38:23;14.60;99.90
13344;DHT22;6741;48.964;9.406;2023-09-07T00:40:50;14.60;99.90
13344;DHT22;6741;48.964;9.406;2023-09-07T00:43:17;14.60;99.90
13344;DHT22;6741;48.964;9.406;2023-09-07T00:45:45;14.60;99.90
13344;DHT22;6741;48.964;9.406;2023-09-07T00:48:12;14.60;99.90
13344;DHT22;6741;48.964;9.406;2023-09-07T00:50:41;14.50;99.90
13344;DHT22;6741;48.964;9.406;2023-09-07T00:53:11;14.50;99.90
13344;DHT22;6741;48.964;9.406;2023-09-07T00:55:39;14.50;99.90
13344;DHT22;6741;48.964;9.406;2023-09-07T00:58:06;14.50;99.90
13344;DHT22;6741;48.964;9.406;2023-09-07T01:00:34;14.50;99.90
13344;DHT22;6741;48.964;9.406;2023-09-07T01:03:02;14.40;99.90
13344;DHT22;6741;48.964;9.406;2023-09-07T01:05:33;14.50;99.90
13344;DHT22;6741;48.964;9.406;2023-09-07T01:08:06;14.40;99.90
13344;DHT22;6741;48.964;9.406;2023-09-07T01:10:35;14.50;99.90
13344;DHT22;6741;48.964;9.406;2023-09-07T01:13:02;14.50;99.90
13344;DHT22;6741;48.964;9.406;2023-09-07T01:15:29;14.40;99.90
13344;DHT22;6741;48.964;9.406;2023-09-07T01:17:56;14.40;99.90
13344;DHT22;6741;48.964;9.406;2023-09-07T01:20:26;14.50;99.90
13344;DHT22;6741;48.964;9.406;2023-09-07T01:22:55;14.50;99.90
13344;DHT22;6741;48.964;9.406;2023-09-07T01:25:23;14.40;99.90
13344;DHT22;6741;48.964;9.406;2023-09-07T01:27:50;14.40;99.90
13344;DHT22;6741;48.964;9.406;2023-09-07T01:30:17;14.40;99.90
13344;DHT22;6741;48.964;9.406;2023-09-07T01:32:45;14.40;99.90
13344;DHT22;6741;48.964;9.406;2023-09-07T01:35:12;14.30;99.90
13344;DHT22;6741;48.964;9.406;2023-09-07T01:37:42;14.30;99.90
13344;DHT22;6741;48.964;9.406;2023-09-07T01:40:10;14.30;99.90
13344;DHT22;6741;48.964;9.406;2023-09-07T01:42:37;14.30;99.90
13344;DHT22;6741;48.964;9.406;2023-09-07T01:45:05;14.30;99.90
13344;DHT22;6741;48.964;9.406;2023-09-07T01:47:31;14.30;99.90
13344;DHT22;6741;48.964;9.406;2023-09-07T01:49:58;14.20;99.90
13344;DHT22;6741;48.964;9.406;2023-09-07T01:52:25;14.20;99.90
13344;DHT22;6741;48.964;9.406;2023-09-07T01:54:51;14.20;99.90
13344;DHT22;6741;48.964;9.406;2023-09-07T01:57:20;14.20;99.90
13344;DHT22;6741;48.964;9.406;2023-09-07T01:59:46;14.20;99.90
13344;DHT22;6741;48.964;9.406;2023-09-07T02:02:13;14.10;99.90
13344;DHT22;6741;48.964;9.406;2023-09-07T02:04:40;14.10;99.90
13344;DHT22;6741;48.964;9.406;2023-09-07T02:07:11;14.00;99.90
13344;DHT22;6741;48.964;9.406;2023-09-07T02:09:38;14.10;99.90
13344;DHT22;6741;48.964;9.406;2023-09-07T02:12:05;14.10;99.90
13344;DHT22;6741;48.964;9.406;2023-09-07T02:14:33;14.00;99.90
13344;DHT22;6741;48.964;9.406;2023-09-07T02:17:00;14.00;99.90
13344;DHT22;6741;48.964;9.406;2023-09-07T02:19:27;14.00;99.90
13344;DHT22;6741;48.964;9.406;2023-09-07T02:21:54;14.00;99.90
13344;DHT22;6741;48.964;9.406;2023-09-07T02:24:21;14.00;99.90
13344;DHT22;6741;48.964;9.406;2023-09-07T02:26:48;14.00;99.90
13344;DHT22;6741;48.964;9.406;2023-09-07T02:29:14;13.90;99.90
13344;DHT22;6741;48.964;9.406;2023-09-07T02:31:43;13.90;99.90
13344;DHT22;6741;48.964;9.406;2023-09-07T02:34:10;13.90;99.90
13344;DHT22;6741;48.964;9.406;2023-09-07T02:36:36;13.90;99.90
13344;DHT22;6741;48.964;9.406;2023-09-07T02:39:03;13.90;99.90
13344;DHT22;6741;48.964;9.406;2023-09-07T02:41:31;13.90;99.90
13344;DHT22;6741;48.964;9.406;2023-09-07T02:43:58;13.90;99.90
13344;DHT22;6741;48.964;9.406;2023-09-07T02:46:25;13.90;99.90
13344;DHT22;6741;48.964;9.406;2023-09-07T02:48:53;13.90;99.90
13344;DHT22;6741;48.964;9.406;2023-09-07T02:51:22;13.90;99.90
13344;DHT22;6741;48.964;9.406;2023-09-07T02:53:49;13.80;99.90
13344;DHT22;6741;48.964;9.406;2023-09-07T02:56:16;13.80;99.90
13344;DHT22;6741;48.964;9.406;2023-09-07T02:58:43;13.80;99.90
13344;DHT22;6741;48.964;9.406;2023-09-07T03:01:11;13.80;99.90
13344;DHT22;6741;48.964;9.406;2023-09-07T03:03:39;13.80;99.90
13344;DHT22;6741;48.964;9.406;2023-09-07T03:06:10;13.80;99.90
13344;DHT22;6741;48.964;9.406;2023-09-07T03:08:37;13.80;99.90
13344;DHT22;6741;48.964;9.406;2023-09-07T03:11:04;13.80;99.90
13344;DHT22;6741;48.964;9.406;2023-09-07T03:13:31;13.80;99.90
13344;DHT22;6741;48.964;9.406;2023-09-07T03:15:58;13.80;99.90
13344;DHT22;6741;48.964;9.406;2023-09-07T03:18:25;13.70;99.90
13344;DHT22;6741;48.964;9.406;2023-09-07T03:20:54;13.70;99.90
13344;DHT22;6741;48.964;9.406;2023-09-07T03:23:23;13.60;99.90
13344;DHT22;6741;48.964;9.406;2023-09-07T03:25:50;13.60;99.90
13344;DHT22;6741;48.964;9.406;2023-09-07T03:28:17;13.60;99.90
13344;DHT22;6741;48.964;9.406;2023-09-07T03:30:44;13.50;99.90
13344;DHT22;6741;48.964;9.406;2023-09-07T03:33:11;13.50;99.90
13344;DHT22;6741;48.964;9.406;2023-09-07T03:35:38;13.40;99.90
13344;DHT22;6741;48.964;9.406;2023-09-07T03:38:06;13.40;99.90
13344;DHT22;6741;48.964;9.406;2023-09-07T03:40:34;13.20;99.90
13344;DHT22;6741;48.964;9.406;2023-09-07T03:43:01;13.30;99.90
13344;DHT22;6741;48.964;9.406;2023-09-07T03:45:28;13.30;99.90
13344;DHT22;6741;48.964;9.406;2023-09-07T03:47:56;13.30;99.90
13344;DHT22;6741;48.964;9.406;2023-09-07T03:50:23;13.30;99.90
13344;DHT22;6741;48.964;9.406;2023-09-07T03:52:50;13.30;99.90
13344;DHT22;6741;48.964;9.406;2023-09-07T03:55:17;13.30;99.90
13344;DHT22;6741;48.964;9.406;2023-09-07T03:57:45;13.40;99.90
13344;DHT22;6741;48.964;9.406;2023-09-07T04:00:13;13.30;99.90
13344;DHT22;6741;48.964;9.406;2023-09-07T04:02:41;13.30;99.90
13344;DHT22;6741;48.964;9.406;2023-09-07T04:05:09;13.30;99.90
13344;DHT22;6741;48.964;9.406;2023-09-07T04:07:37;13.30;99.90
13344;DHT22;6741;48.964;9.406;2023-09-07T04:10:04;13.20;99.90
13344;DHT22;6741;48.964;9.406;2023-09-07T04:12:31;13.20;99.90
13344;DHT22;6741;48.964;9.406;2023-09-07T04:15:00;13.20;99.90
13344;DHT22;6741;48.964;9.406;2023-09-07T04:17:27;13.20;99.90
13344;DHT22;6741;48.964;9.406;2023-09-07T04:19:54;13.20;99.90
13344;DHT22;6741;48.964;9.406;2023-09-07T04:22:21;13.10;99.90
13344;DHT22;6741;48.964;9.406;2023-09-07T04:24:48;13.10;99.90
13344;DHT22;6741;48.964;9.406;2023-09-07T04:27:15;13.10;99.90
13344;DHT22;6741;48.964;9.406;2023-09-07T04:29:42;13.10;99.90
13344;DHT22;6741;48.964;9.406;2023-09-07T04:32:10;13.10;99.90
13344;DHT22;6741;48.964;9.406;2023-09-07T04:34:37;13.10;99.90
13344;DHT22;6741;48.964;9.406;2023-09-07T04:37:04;13.10;99.90
13344;DHT22;6741;48.964;9.406;2023-09-07T04:39:31;13.10;99.90
13344;DHT22;6741;48.964;9.406;2023-09-07T04:41:57;13.10;99.90
13344;DHT22;6741;48.964;9.406;2023-09-07T04:44:26;13.10;99.90
13344;DHT22;6741;48.964;9.406;2023-09-07T04:46:54;13.20;99.90
13344;DHT22;6741;48.964;9.406;2023-09-07T04:49:23;13.20;99.90
13344;DHT22;6741;48.964;9.406;2023-09-07T04:51:52;13.10;99.90
13344;DHT22;6741;48.964;9.406;2023-09-07T04:54:19;13.10;99.90
13344;DHT22;6741;48.964;9.406;2023-09-07T04:56:46;13.10;99.90
13344;DHT22;6741;48.964;9.406;2023-09-07T04:59:13;13.10;99.90
13344;DHT22;6741;48.964;9.406;2023-09-07T05:01:40;13.00;99.90
13344;DHT22;6741;48.964;9.406;2023-09-07T05:04:07;13.00;99.90
13344;DHT22;6741;48.964;9.406;2023-09-07T05:06:35;13.10;99.90
13344;DHT22;6741;48.964;9.406;2023-09-07T05:09:04;13.10;99.90
13344;DHT22;6741;48.964;9.406;2023-09-07T05:11:30;13.10;99.90
13344;DHT22;6741;48.964;9.406;2023-09-07T05:14:00;13.10;99.90
13344;DHT22;6741;48.964;9.406;2023-09-07T05:16:27;13.10;99.90
13344;DHT22;6741;48.964;9.406;2023-09-07T05:18:54;13.20;99.90
13344;DHT22;6741;48.964;9.406;2023-09-07T05:21:20;13.20;99.90
13344;DHT22;6741;48.964;9.406;2023-09-07T05:23:49;13.30;99.90
13344;DHT22;6741;48.964;9.406;2023-09-07T05:26:20;13.40;99.90
13344;DHT22;6741;48.964;9.406;2023-09-07T05:28:47;13.40;99.90
13344;DHT22;6741;48.964;9.406;2023-09-07T05:31:14;13.40;99.90
13344;DHT22;6741;48.964;9.406;2023-09-07T05:33:41;13.50;99.90
13344;DHT22;6741;48.964;9.406;2023-09-07T05:36:08;13.50;99.90
13344;DHT22;6741;48.964;9.406;2023-09-07T05:38:35;13.60;99.90
13344;DHT22;6741;48.964;9.406;2023-09-07T05:41:03;13.60;99.90
13344;DHT22;6741;48.964;9.406;2023-09-07T05:43:30;13.70;99.90
13344;DHT22;6741;48.964;9.406;2023-09-07T05:45:57;13.70;99.90
13344;DHT22;6741;48.964;9.406;2023-09-07T05:48:24;13.80;99.90
13344;DHT22;6741;48.964;9.406;2023-09-07T05:50:51;13.90;99.90
13344;DHT22;6741;48.964;9.406;2023-09-07T05:53:18;13.90;99.90
13344;DHT22;6741;48.964;9.406;2023-09-07T05:55:46;14.10;99.90
13344;DHT22;6741;48.964;9.406;2023-09-07T05:58:14;14.20;99.90
13344;DHT22;6741;48.964;9.406;2023-09-07T06:00:41;14.30;99.90
13344;DHT22;6741;48.964;9.406;2023-09-07T06:03:07;14.40;99.90
13344;DHT22;6741;48.964;9.406;2023-09-07T06:05:35;14.40;99.90
13344;DHT22;6741;48.964;9.406;2023-09-07T06:08:02;14.40;99.90
13344;DHT22;6741;48.964;9.406;2023-09-07T06:10:30;14.50;99.90
13344;DHT22;6741;48.964;9.406;2023-09-07T06:12:57;14.60;99.90
13344;DHT22;6741;48.964;9.406;2023-09-07T06:15:26;14.60;99.90
13344;DHT22;6741;48.964;9.406;2023-09-07T06:17:53;14.70;99.90
13344;DHT22;6741;48.964;9.406;2023-09-07T06:20:20;14.90;99.90
13344;DHT22;6741;48.964;9.406;2023-09-07T06:22:47;14.90;99.90
13344;DHT22;6741;48.964;9.406;2023-09-07T06:25:14;15.00;99.90
13344;DHT22;6741;48.964;9.406;2023-09-07T06:27:41;15.10;99.90
13344;DHT22;6741;48.964;9.406;2023-09-07T06:30:09;15.20;99.90
13344;DHT22;6741;48.964;9.406;2023-09-07T06:32:37;15.30;99.90
13344;DHT22;6741;48.964;9.406;2023-09-07T06:35:06;15.50;99.90
13344;DHT22;6741;48.964;9.406;2023-09-07T06:37:33;15.60;99.90
13344;DHT22;6741;48.964;9.406;2023-09-07T06:40:01;15.70;99.90
13344;DHT22;6741;48.964;9.406;2023-09-07T06:42:29;15.80;99.90
13344;DHT22;6741;48.964;9.406;2023-09-07T06:44:57;16.00;99.90
13344;DHT22;6741;48.964;9.406;2023-09-07T06:47:24;16.20;99.90
13344;DHT22;6741;48.964;9.406;2023-09-07T06:49:52;16.40;99.90
13344;DHT22;6741;48.964;9.406;2023-09-07T06:52:19;16.50;99.90
13344;DHT22;6741;48.964;9.406;2023-09-07T06:54:46;16.70;99.90
13344;DHT22;6741;48.964;9.406;2023-09-07T06:57:13;17.00;99.90
13344;DHT22;6741;48.964;9.406;2023-09-07T06:59:39;17.20;99.90
13344;DHT22;6741;48.964;9.406;2023-09-07T07:02:05;17.30;99.90
13344;DHT22;6741;48.964;9.406;2023-09-07T07:04:32;17.50;99.90
13344;DHT22;6741;48.964;9.406;2023-09-07T07:07:01;17.60;99.90
13344;DHT22;6741;48.964;9.406;2023-09-07T07:09:29;17.80;99.90
13344;DHT22;6741;48.964;9.406;2023-09-07T07:11:57;18.10;99.90
13344;DHT22;6741;48.964;9.406;2023-09-07T07:14:24;18.30;99.90
13344;DHT22;6741;48.964;9.406;2023-09-07T07:16:51;18.50;99.90
13344;DHT22;6741;48.964;9.406;2023-09-07T07:19:18;18.70;89.70
13344;DHT22;6741;48.964;9.406;2023-09-07T07:21:45;18.80;54.60
13344;DHT22;6741;48.964;9.406;2023-09-07T07:24:13;19.00;47.30
13344;DHT22;6741;48.964;9.406;2023-09-07T07:26:40;19.20;9.00
13344;DHT22;6741;48.964;9.406;2023-09-07T07:29:07;19.30;30.30
13344;DHT22;6741;48.964;9.406;2023-09-07T07:31:35;19.40;1.00
13344;DHT22;6741;48.964;9.406;2023-09-07T07:34:01;19.40;1.00
13344;DHT22;6741;48.964;9.406;2023-09-07T07:36:28;19.50;1.00
13344;DHT22;6741;48.964;9.406;2023-09-07T07:38:56;19.60;13.80
13344;DHT22;6741;48.964;9.406;2023-09-07T07:41:24;19.70;1.00
13344;DHT22;6741;48.964;9.406;2023-09-07T07:43:53;19.90;1.00
13344;DHT22;6741;48.964;9.406;2023-09-07T07:46:20;20.10;1.00
13344;DHT22;6741;48.964;9.406;2023-09-07T07:48:47;20.10;1.00
13344;DHT22;6741;48.964;9.406;2023-09-07T07:51:14;20.30;1.00
13344;DHT22;6741;48.964;9.406;2023-09-07T07:53:41;20.30;1.00
13344;DHT22;6741;48.964;9.406;2023-09-07T07:56:14;20.50;1.00
13344;DHT22;6741;48.964;9.406;2023-09-07T07:58:43;20.50;1.00
13344;DHT22;6741;48.964;9.406;2023-09-07T08:01:14;20.70;1.00
13344;DHT22;6741;48.964;9.406;2023-09-07T08:03:41;20.80;1.00
13344;DHT22;6741;48.964;9.406;2023-09-07T08:06:08;20.90;1.00
13344;DHT22;6741;48.964;9.406;2023-09-07T08:08:36;20.90;1.00
13344;DHT22;6741;48.964;9.406;2023-09-07T08:11:05;21.00;1.00
13344;DHT22;6741;48.964;9.406;2023-09-07T08:13:33;21.20;99.90
13344;DHT22;6741;48.964;9.406;2023-09-07T08:16:02;21.20;99.90
13344;DHT22;6741;48.964;9.406;2023-09-07T08:18:29;21.40;1.00
13344;DHT22;6741;48.964;9.406;2023-09-07T08:20:57;21.50;1.00
13344;DHT22;6741;48.964;9.406;2023-09-07T08:23:24;21.60;99.90
13344;DHT22;6741;48.964;9.406;2023-09-07T08:25:52;21.70;99.90
13344;DHT22;6741;48.964;9.406;2023-09-07T08:28:19;21.80;99.90
13344;DHT22;6741;48.964;9.406;2023-09-07T08:30:49;21.80;1.00
13344;DHT22;6741;48.964;9.406;2023-09-07T08:33:20;21.90;71.10
13344;DHT22;6741;48.964;9.406;2023-09-07T08:35:51;22.00;99.90
13344;DHT22;6741;48.964;9.406;2023-09-07T08:38:18;22.20;99.90
13344;DHT22;6741;48.964;9.406;2023-09-07T08:40:48;22.30;1.00
13344;DHT22;6741;48.964;9.406;2023-09-07T08:43:17;22.40;99.90
13344;DHT22;6741;48.964;9.406;2023-09-07T08:45:50;22.50;99.90
13344;DHT22;6741;48.964;9.406;2023-09-07T08:48:20;22.50;1.00
13344;DHT22;6741;48.964;9.406;2023-09-07T08:50:48;22.60;99.90
13344;DHT22;6741;48.964;9.406;2023-09-07T08:53:18;22.70;99.90
13344;DHT22;6741;48.964;9.406;2023-09-07T08:55:46;22.80;1.00
13344;DHT22;6741;48.964;9.406;2023-09-07T08:58:13;22.90;99.90
13344;DHT22;6741;48.964;9.406;2023-09-07T09:00:42;23.10;1.00
13344;DHT22;6741;48.964;9.406;2023-09-07T09:03:09;23.20;1.00
13344;DHT22;6741;48.964;9.406;2023-09-07T09:05:39;23.30;1.00
13344;DHT22;6741;48.964;9.406;2023-09-07T09:08:08;23.50;95.00
13344;DHT22;6741;48.964;9.406;2023-09-07T09:10:39;23.60;1.00
13344;DHT22;6741;48.964;9.406;2023-09-07T09:13:09;23.60;99.90
13344;DHT22;6741;48.964;9.406;2023-09-07T09:15:39;23.80;1.00
13344;DHT22;6741;48.964;9.406;2023-09-07T09:18:11;24.00;1.00
13344;DHT22;6741;48.964;9.406;2023-09-07T09:20:45;24.10;1.00
13344;DHT22;6741;48.964;9.406;2023-09-07T09:23:13;24.00;1.00
13344;DHT22;6741;48.964;9.406;2023-09-07T09:25:42;24.30;1.00
13344;DHT22;6741;48.964;9.406;2023-09-07T09:28:12;24.40;1.00
13344;DHT22;6741;48.964;9.406;2023-09-07T09:30:43;24.60;54.70
13344;DHT22;6741;48.964;9.406;2023-09-07T09:33:12;24.50;1.00
13344;DHT22;6741;48.964;9.406;2023-09-07T09:35:44;24.60;1.00
13344;DHT22;6741;48.964;9.406;2023-09-07T09:38:14;24.70;99.90
13344;DHT22;6741;48.964;9.406;2023-09-07T09:40:48;24.90;99.90
13344;DHT22;6741;48.964;9.406;2023-09-07T09:43:18;25.00;99.90
13344;DHT22;6741;48.964;9.406;2023-09-07T09:45:49;25.20;1.00
13344;DHT22;6741;48.964;9.406;2023-09-07T09:48:19;25.70;1.00
13344;DHT22;6741;48.964;9.406;2023-09-07T09:50:50;25.70;1.00
13344;DHT22;6741;48.964;9.406;2023-09-07T09:53:20;25.80;99.90
13344;DHT22;6741;48.964;9.406;2023-09-07T09:55:50;26.00;99.90
13344;DHT22;6741;48.964;9.406;2023-09-07T09:58:19;26.10;1.00
13344;DHT22;6741;48.964;9.406;2023-09-07T10:00:49;26.30;99.90
13344;DHT22;6741;48.964;9.406;2023-09-07T10:03:22;26.50;99.90
13344;DHT22;6741;48.964;9.406;2023-09-07T10:05:54;26.40;99.90
13344;DHT22;6741;48.964;9.406;2023-09-07T10:08:23;26.50;1.00
13344;DHT22;6741;48.964;9.406;2023-09-07T10:10:53;26.60;1.00
13344;DHT22;6741;48.964;9.406;2023-09-07T10:13:30;27.00;1.00
13344;DHT22;6741;48.964;9.406;2023-09-07T10:16:02;26.80;1.00
13344;DHT22;6741;48.964;9.406;2023-09-07T10:18:35;27.10;1.00
13344;DHT22;6741;48.964;9.406;2023-09-07T10:21:05;27.80;1.00
13344;DHT22;6741;48.964;9.406;2023-09-07T10:23:39;28.10;1.00
13344;DHT22;6741;48.964;9.406;2023-09-07T10:26:12;28.70;1.00
13344;DHT22;6741;48.964;9.406;2023-09-07T10:28:41;29.10;1.00
13344;DHT22;6741;48.964;9.406;2023-09-07T10:31:15;29.40;1.00
13344;DHT22;6741;48.964;9.406;2023-09-07T10:33:44;29.50;99.90
13344;DHT22;6741;48.964;9.406;2023-09-07T10:36:23;29.40;99.90
13344;DHT22;6741;48.964;9.406;2023-09-07T10:38:53;29.30;61.70
13344;DHT22;6741;48.964;9.406;2023-09-07T10:41:22;29.20;99.90
13344;DHT22;6741;48.964;9.406;2023-09-07T10:43:52;29.30;1.00
13344;DHT22;6741;48.964;9.406;2023-09-07T10:46:22;29.90;1.00
13344;DHT22;6741;48.964;9.406;2023-09-07T10:48:51;29.70;99.90
13344;DHT22;6741;48.964;9.406;2023-09-07T10:51:21;30.10;1.00
13344;DHT22;6741;48.964;9.406;2023-09-07T10:53:50;29.70;99.90
13344;DHT22;6741;48.964;9.406;2023-09-07T10:56:24;30.00;1.00
13344;DHT22;6741;48.964;9.406;2023-09-07T10:58:54;30.40;1.00
13344;DHT22;6741;48.964;9.406;2023-09-07T11:01:23;30.50;99.90
13344;DHT22;6741;48.964;9.406;2023-09-07T11:03:51;30.40;26.20
13344;DHT22;6741;48.964;9.406;2023-09-07T11:06:22;30.40;1.00
13344;DHT22;6741;48.964;9.406;2023-09-07T11:08:51;30.90;1.00
13344;DHT22;6741;48.964;9.406;2023-09-07T11:11:19;31.40;99.90
13344;DHT22;6741;48.964;9.406;2023-09-07T11:13:49;31.50;99.90
13344;DHT22;6741;48.964;9.406;2023-09-07T11:16:18;31.70;1.00
13344;DHT22;6741;48.964;9.406;2023-09-07T11:18:46;32.10;1.00
13344;DHT22;6741;48.964;9.406;2023-09-07T11:21:15;32.90;1.00
13344;DHT22;6741;48.964;9.406;2023-09-07T11:23:45;33.40;99.90
13344;DHT22;6741;48.964;9.406;2023-09-07T11:26:14;34.00;99.90
13344;DHT22;6741;48.964;9.406;2023-09-07T11:28:46;34.10;99.90
13344;DHT22;6741;48.964;9.406;2023-09-07T11:31:19;33.80;1.00
13344;DHT22;6741;48.964;9.406;2023-09-07T11:33:48;34.30;43.20
13344;DHT22;6741;48.964;9.406;2023-09-07T11:36:16;33.60;99.90
13344;DHT22;6741;48.964;9.406;2023-09-07T11:38:47;33.90;1.00
13344;DHT22;6741;48.964;9.406;2023-09-07T11:41:18;34.10;14.10
13344;DHT22;6741;48.964;9.406;2023-09-07T11:43:46;34.60;51.20
13344;DHT22;6741;48.964;9.406;2023-09-07T11:46:15;35.30;99.90
13344;DHT22;6741;48.964;9.406;2023-09-07T11:48:44;35.50;1.00
13344;DHT22;6741;48.964;9.406;2023-09-07T11:51:14;36.00;1.00
13344;DHT22;6741;48.964;9.406;2023-09-07T11:53:44;36.20;99.90
13344;DHT22;6741;48.964;9.406;2023-09-07T11:56:12;36.20;99.90
13344;DHT22;6741;48.964;9.406;2023-09-07T11:58:42;36.70;1.00
13344;DHT22;6741;48.964;9.406;2023-09-07T12:01:11;36.60;1.00
13344;DHT22;6741;48.964;9.406;2023-09-07T12:03:43;36.70;1.00
13344;DHT22;6741;48.964;9.406;2023-09-07T12:06:12;36.80;99.90
13344;DHT22;6741;48.964;9.406;2023-09-07T12:08:42;37.00;1.00
13344;DHT22;6741;48.964;9.406;2023-09-07T12:11:27;37.00;1.00
13344;DHT22;6741;48.964;9.406;2023-09-07T12:13:55;37.20;99.90
13344;DHT22;6741;48.964;9.406;2023-09-07T12:16:24;37.10;99.90
13344;DHT22;6741;48.964;9.406;2023-09-07T12:18:53;37.00;1.00
13344;DHT22;6741;48.964;9.406;2023-09-07T12:21:24;37.30;99.90
13344;DHT22;6741;48.964;9.406;2023-09-07T12:23:52;38.10;1.00
13344;DHT22;6741;48.964;9.406;2023-09-07T12:26:20;37.70;99.90
13344;DHT22;6741;48.964;9.406;2023-09-07T12:28:51;37.30;1.00
13344;DHT22;6741;48.964;9.406;2023-09-07T12:31:19;37.10;1.00
13344;DHT22;6741;48.964;9.406;2023-09-07T12:33:48;37.10;1.00
13344;DHT22;6741;48.964;9.406;2023-09-07T12:36:17;36.80;1.00
13344;DHT22;6741;48.964;9.406;2023-09-07T12:38:48;36.80;1.00
13344;DHT22;6741;48.964;9.406;2023-09-07T12:41:15;37.70;99.90
13344;DHT22;6741;48.964;9.406;2023-09-07T12:43:42;38.10;1.00
13344;DHT22;6741;48.964;9.406;2023-09-07T12:46:10;38.50;1.00
13344;DHT22;6741;48.964;9.406;2023-09-07T12:48:37;38.90;1.00
13344;DHT22;6741;48.964;9.406;2023-09-07T12:51:04;38.30;1.00
13344;DHT22;6741;48.964;9.406;2023-09-07T12:53:31;38.20;1.00
13344;DHT22;6741;48.964;9.406;2023-09-07T12:55:58;38.50;1.00
13344;DHT22;6741;48.964;9.406;2023-09-07T12:58:26;39.00;1.00
13344;DHT22;6741;48.964;9.406;2023-09-07T13:00:53;38.80;1.00
13344;DHT22;6741;48.964;9.406;2023-09-07T13:03:21;39.10;1.00
13344;DHT22;6741;48.964;9.406;2023-09-07T13:05:48;38.80;1.00
13344;DHT22;6741;48.964;9.406;2023-09-07T13:08:15;38.60;1.00
13344;DHT22;6741;48.964;9.406;2023-09-07T13:10:42;39.00;1.00
13344;DHT22;6741;48.964;9.406;2023-09-07T13:13:09;39.50;1.00
13344;DHT22;6741;48.964;9.406;2023-09-07T13:15:36;39.20;1.00
13344;DHT22;6741;48.964;9.406;2023-09-07T13:18:03;38.50;1.00
13344;DHT22;6741;48.964;9.406;2023-09-07T13:20:31;38.50;1.00
13344;DHT22;6741;48.964;9.406;2023-09-07T13:22:58;38.90;1.00
13344;DHT22;6741;48.964;9.406;2023-09-07T13:25:25;38.80;1.00
13344;DHT22;6741;48.964;9.406;2023-09-07T13:27:52;38.90;1.00
13344;DHT22;6741;48.964;9.406;2023-09-07T13:30:19;39.00;1.00
13344;DHT22;6741;48.964;9.406;2023-09-07T13:32:46;39.60;1.00
13344;DHT22;6741;48.964;9.406;2023-09-07T13:35:13;39.80;1.00
13344;DHT22;6741;48.964;9.406;2023-09-07T13:37:41;40.20;1.00
13344;DHT22;6741;48.964;9.406;2023-09-07T13:40:09;40.70;1.00
13344;DHT22;6741;48.964;9.406;2023-09-07T13:42:36;40.00;1.00
13344;DHT22;6741;48.964;9.406;2023-09-07T13:45:05;40.30;1.00
13344;DHT22;6741;48.964;9.406;2023-09-07T13:47:32;40.50;1.00
13344;DHT22;6741;48.964;9.406;2023-09-07T13:49:59;40.40;1.00
13344;DHT22;6741;48.964;9.406;2023-09-07T13:52:25;39.10;1.00
13344;DHT22;6741;48.964;9.406;2023-09-07T13:54:53;39.20;1.00
13344;DHT22;6741;48.964;9.406;2023-09-07T13:57:20;39.30;1.00
13344;DHT22;6741;48.964;9.406;2023-09-07T13:59:47;39.00;1.00
13344;DHT22;6741;48.964;9.406;2023-09-07T14:02:14;39.10;1.00
13344;DHT22;6741;48.964;9.406;2023-09-07T14:04:41;39.20;1.00
13344;DHT22;6741;48.964;9.406;2023-09-07T14:07:08;39.40;1.00
13344;DHT22;6741;48.964;9.406;2023-09-07T14:09:35;39.10;1.00
13344;DHT22;6741;48.964;9.406;2023-09-07T14:12:04;39.50;1.00
13344;DHT22;6741;48.964;9.406;2023-09-07T14:14:31;40.40;1.00
13344;DHT22;6741;48.964;9.406;2023-09-07T14:16:57;40.20;1.00
13344;DHT22;6741;48.964;9.406;2023-09-07T14:19:25;40.10;1.00
13344;DHT22;6741;48.964;9.406;2023-09-07T14:21:56;40.80;1.00
13344;DHT22;6741;48.964;9.406;2023-09-07T14:24:23;40.90;1.00
13344;DHT22;6741;48.964;9.406;2023-09-07T14:26:50;41.00;1.00
13344;DHT22;6741;48.964;9.406;2023-09-07T14:29:18;41.10;1.00
13344;DHT22;6741;48.964;9.406;2023-09-07T14:31:45;41.10;1.00
13344;DHT22;6741;48.964;9.406;2023-09-07T14:34:12;41.40;1.00
13344;DHT22;6741;48.964;9.406;2023-09-07T14:36:39;41.20;1.00
13344;DHT22;6741;48.964;9.406;2023-09-07T14:39:07;41.70;1.00
13344;DHT22;6741;48.964;9.406;2023-09-07T14:41:34;40.60;1.00
13344;DHT22;6741;48.964;9.406;2023-09-07T14:44:01;39.60;1.00
13344;DHT22;6741;48.964;9.406;2023-09-07T14:46:29;39.30;1.00
13344;DHT22;6741;48.964;9.406;2023-09-07T14:48:56;39.40;1.00
13344;DHT22;6741;48.964;9.406;2023-09-07T14:51:23;39.20;1.00
13344;DHT22;6741;48.964;9.406;2023-09-07T14:53:50;39.70;1.00
13344;DHT22;6741;48.964;9.406;2023-09-07T14:56:17;39.60;1.00
13344;DHT22;6741;48.964;9.406;2023-09-07T14:58:44;38.60;1.00
13344;DHT22;6741;48.964;9.406;2023-09-07T15:01:11;38.70;1.00
13344;DHT22;6741;48.964;9.406;2023-09-07T15:03:39;38.60;1.00
13344;DHT22;6741;48.964;9.406;2023-09-07T15:06:06;38.40;1.00
13344;DHT22;6741;48.964;9.406;2023-09-07T15:08:37;37.80;1.00
13344;DHT22;6741;48.964;9.406;2023-09-07T15:11:04;37.60;1.00
13344;DHT22;6741;48.964;9.406;2023-09-07T15:13:31;37.60;1.00
13344;DHT22;6741;48.964;9.406;2023-09-07T15:15:57;38.00;1.00
13344;DHT22;6741;48.964;9.406;2023-09-07T15:18:24;38.30;1.00
13344;DHT22;6741;48.964;9.406;2023-09-07T15:20:52;38.10;1.00
13344;DHT22;6741;48.964;9.406;2023-09-07T15:23:19;38.40;1.00
13344;DHT22;6741;48.964;9.406;2023-09-07T15:25:46;38.10;1.00
13344;DHT22;6741;48.964;9.406;2023-09-07T15:28:13;38.10;1.00
13344;DHT22;6741;48.964;9.406;2023-09-07T15:30:40;37.40;1.00
13344;DHT22;6741;48.964;9.406;2023-09-07T15:33:07;36.30;1.00
13344;DHT22;6741;48.964;9.406;2023-09-07T15:35:34;35.40;1.00
13344;DHT22;6741;48.964;9.406;2023-09-07T15:38:02;35.70;1.00
13344;DHT22;6741;48.964;9.406;2023-09-07T15:40:29;34.70;1.00
13344;DHT22;6741;48.964;9.406;2023-09-07T15:42:56;33.60;1.00
13344;DHT22;6741;48.964;9.406;2023-09-07T15:45:23;32.30;1.00
13344;DHT22;6741;48.964;9.406;2023-09-07T15:47:50;31.10;1.00
13344;DHT22;6741;48.964;9.406;2023-09-07T15:50:17;30.30;1.00
13344;DHT22;6741;48.964;9.406;2023-09-07T15:52:45;29.80;1.00
13344;DHT22;6741;48.964;9.406;2023-09-07T15:55:14;29.20;1.00
13344;DHT22;6741;48.964;9.406;2023-09-07T15:57:42;28.80;1.00